Time;durP1;ratioP1;P1;durP2;ratioP2;P2;SDS_P1;SDS_P2;PMS_P1;PMS_P2;Temp;Humidity;BMP_temperature;BMP_pressure;BME280_temperature;BME280_humidity;BME280_pressure;Samples;Min_cycle;Max_cycle;Signal;HPM_P1;HPM_P2
2021/12/02 00:01:00;;;;;;;6.80;5.30;;;;;;;5.53;81.73;97694.60;103506;1318;25378;-77
2021/12/02 00:03:28;;;;;;;8.00;5.10;;;;;;;5.50;81.68;97683.90;103404;1318;25470;-78
2021/12/02 00:05:55;;;;;;;6.40;5.00;;;;;;;5.54;81.80;97691.45;103539;1315;25239;-78
2021/12/02 00:08:22;;;;;;;7.30;5.40;;;;;;;5.55;81.87;97696.11;103437;1318;25922;-74
2021/12/02 00:10:49;;;;;;;7.80;5.40;;;;;;;5.55;81.91;97699.42;103260;1319;24257;-75
2021/12/02 00:13:20;;;;;;;8.00;5.30;;;;;;;5.56;81.92;97695.39;103464;1318;22717;-76
2021/12/02 00:15:56;;;;;;;5.40;4.50;;;;;;;5.62;82.08;97697.46;103544;1319;22574;-82
2021/12/02 00:21:05;;;;;;;6.60;4.40;;;;;;;5.63;82.04;97700.92;103571;1318;22706;-78
2021/12/02 00:23:34;;;;;;;7.20;4.60;;;;;;;5.61;82.03;97692.61;103676;1316;25253;-77
2021/12/02 00:26:09;;;;;;;7.20;4.60;;;;;;;5.60;81.99;97687.94;103386;1320;24234;-75
2021/12/02 00:28:38;;;;;;;7.50;5.00;;;;;;;5.61;82.11;97686.50;103480;1319;25535;-76
2021/12/02 00:31:06;;;;;;;8.80;4.90;;;;;;;5.63;82.15;97669.84;103514;1319;25412;-74
2021/12/02 00:33:34;;;;;;;8.50;4.90;;;;;;;5.64;82.13;97668.92;103527;1318;24545;-75
2021/12/02 00:36:01;;;;;;;8.30;4.70;;;;;;;5.67;82.12;97666.05;103533;1319;24328;-76
2021/12/02 00:38:28;;;;;;;6.00;4.30;;;;;;;5.67;81.89;97660.80;103345;1318;22820;-74
2021/12/02 00:40:55;;;;;;;6.10;4.50;;;;;;;5.67;81.88;97661.16;103440;1317;25463;-75
2021/12/02 00:43:22;;;;;;;4.70;2.90;;;;;;;5.66;81.89;97663.11;103632;1318;22569;-76
2021/12/02 00:45:49;;;;;;;6.00;4.00;;;;;;;5.67;81.90;97662.73;103466;1318;24293;-75
2021/12/02 00:48:16;;;;;;;6.20;4.00;;;;;;;5.69;81.86;97657.41;103495;1317;22961;-75
2021/12/02 00:50:48;;;;;;;6.40;4.30;;;;;;;5.71;81.81;97655.45;103407;1318;22572;-76
2021/12/02 00:53:20;;;;;;;5.10;3.80;;;;;;;5.73;81.79;97651.39;103358;1315;24238;-77
2021/12/02 00:55:49;;;;;;;5.50;4.30;;;;;;;5.76;81.78;97657.21;103352;1315;22658;-79
2021/12/02 00:58:20;;;;;;;3.20;2.80;;;;;;;5.79;81.48;97662.52;103392;1318;24393;-76
2021/12/02 01:00:52;;;;;;;6.40;4.20;;;;;;;5.80;81.41;97656.04;103381;1318;24255;-77
2021/12/02 01:03:21;;;;;;;7.70;4.20;;;;;;;5.79;81.45;97648.88;103534;1318;22645;-76
2021/12/02 01:05:51;;;;;;;6.90;3.80;;;;;;;5.78;81.35;97645.44;103329;1318;23942;-76
2021/12/02 01:08:19;;;;;;;5.30;3.30;;;;;;;5.79;81.26;97653.43;103055;1321;24236;-75
2021/12/02 01:10:46;;;;;;;6.00;3.90;;;;;;;5.83;81.13;97653.66;103429;1318;22552;-77
2021/12/02 01:13:13;;;;;;;5.50;3.60;;;;;;;5.86;81.19;97647.80;103374;1318;25298;-76
2021/12/02 01:15:40;;;;;;;5.50;3.70;;;;;;;5.87;81.04;97652.29;103328;1318;25381;-76
2021/12/02 01:18:07;;;;;;;4.90;3.90;;;;;;;5.88;80.97;97660.64;103352;1318;22601;-76
2021/12/02 01:20:35;;;;;;;5.80;3.90;;;;;;;5.90;80.69;97655.66;103364;1318;24446;-76
2021/12/02 01:23:03;;;;;;;3.70;2.80;;;;;;;5.94;80.76;97657.29;103384;1318;24259;-76
2021/12/02 01:25:31;;;;;;;5.30;4.00;;;;;;;5.96;80.38;97651.45;103514;1318;22790;-76
2021/12/02 01:27:59;;;;;;;4.90;3.30;;;;;;;5.98;80.36;97648.79;103474;1319;24407;-76
2021/12/02 01:30:28;;;;;;;5.70;4.10;;;;;;;5.99;80.30;97653.45;103386;1318;25256;-76
2021/12/02 01:33:18;;;;;;;5.60;3.90;;;;;;;6.01;80.13;97645.88;103532;1319;25413;-76
2021/12/02 01:35:51;;;;;;;4.90;2.80;;;;;;;6.01;80.08;97649.58;103462;1318;25354;-77
2021/12/02 01:38:23;;;;;;;6.10;3.30;;;;;;;6.01;79.88;97651.82;103518;1319;24294;-76
2021/12/02 01:40:52;;;;;;;6.10;3.40;;;;;;;6.03;79.93;97647.38;103418;1319;22580;-76
2021/12/02 01:43:21;;;;;;;4.70;3.50;;;;;;;6.06;79.81;97650.80;103077;1319;23030;-79
2021/12/02 01:45:48;;;;;;;5.50;3.30;;;;;;;6.01;79.66;97639.80;103155;1318;24258;-78
2021/12/02 01:48:25;;;;;;;4.50;3.20;;;;;;;6.07;79.71;97647.09;103519;1318;22634;-79
2021/12/02 01:51:04;;;;;;;5.60;3.00;;;;;;;6.10;79.58;97644.55;103348;1319;24316;-80
2021/12/02 01:53:34;;;;;;;3.90;3.00;;;;;;;6.13;79.28;97638.00;103530;1318;22727;-79
2021/12/02 01:56:14;;;;;;;6.60;3.30;;;;;;;6.11;79.13;97638.58;103335;1312;22690;-80
2021/12/02 01:58:46;;;;;;;4.30;3.20;;;;;;;6.11;79.05;97641.54;103298;1318;22770;-76
2021/12/02 02:01:20;;;;;;;4.70;3.30;;;;;;;6.11;78.94;97641.74;103228;1318;22669;-75
2021/12/02 02:04:07;;;;;;;4.80;3.50;;;;;;;6.11;79.02;97640.33;103248;1318;23128;-74
2021/12/02 02:09:49;;;;;;;3.70;3.10;;;;;;;6.11;78.97;97635.27;103374;1318;25403;-74
2021/12/02 02:12:15;;;;;;;4.90;3.30;;;;;;;6.12;78.60;97630.86;103242;1318;25671;-73
2021/12/02 02:14:44;;;;;;;4.20;2.80;;;;;;;6.16;78.71;97641.02;103302;1318;22585;-73
2021/12/02 02:17:23;;;;;;;3.80;3.00;;;;;;;6.17;78.61;97638.36;103213;1318;23946;-74
2021/12/02 02:19:50;;;;;;;4.60;2.80;;;;;;;6.22;78.47;97636.29;102949;1320;22578;-74
2021/12/02 02:22:22;;;;;;;4.10;3.00;;;;;;;6.26;78.16;97642.95;103066;1318;25361;-72
2021/12/02 02:24:50;;;;;;;3.10;2.80;;;;;;;6.28;78.03;97647.08;103358;1318;22662;-73
2021/12/02 02:27:17;;;;;;;4.40;3.10;;;;;;;6.31;77.89;97651.50;103229;1313;23152;-73
2021/12/02 02:29:45;;;;;;;6.20;3.20;;;;;;;6.30;77.66;97651.70;102978;1315;22586;-74
2021/12/02 02:32:11;;;;;;;4.50;2.90;;;;;;;6.29;77.67;97652.99;102979;1321;25316;-74
2021/12/02 02:34:38;;;;;;;4.50;3.20;;;;;;;6.29;77.64;97646.36;103327;1318;22604;-76
2021/12/02 02:37:07;;;;;;;5.60;2.90;;;;;;;6.28;77.44;97651.42;103328;1318;26593;-75
2021/12/02 02:39:35;;;;;;;4.20;2.90;;;;;;;6.27;77.49;97646.25;103405;1316;24368;-75
2021/12/02 02:42:05;;;;;;;4.50;2.90;;;;;;;6.21;77.38;97636.66;103166;1319;24303;-75
2021/12/02 02:44:33;;;;;;;4.90;3.30;;;;;;;6.22;77.30;97642.23;103143;1318;22708;-75
2021/12/02 02:47:00;;;;;;;3.40;2.80;;;;;;;6.19;77.23;97637.94;103256;1319;23944;-74
2021/12/02 02:49:27;;;;;;;3.20;2.80;;;;;;;6.19;77.05;97633.05;103324;1318;22771;-74
2021/12/02 02:51:55;;;;;;;3.40;3.00;;;;;;;6.19;77.07;97623.80;103446;1318;22653;-75
2021/12/02 02:54:22;;;;;;;2.50;2.20;;;;;;;6.17;76.94;97626.84;103487;1318;25875;-80
2021/12/02 02:57:04;;;;;;;3.90;3.10;;;;;;;6.17;77.04;97621.61;103708;1318;25233;-81
2021/12/02 02:59:40;;;;;;;4.00;2.90;;;;;;;6.18;77.02;97616.30;103791;1318;23063;-79
2021/12/02 03:02:22;;;;;;;3.80;2.40;;;;;;;6.18;77.09;97615.95;103945;1318;26525;-78
2021/12/02 03:17:50;;;;;;;5.50;2.90;;;;;;;6.05;76.87;97598.25;103356;1322;22561;-82
2021/12/02 03:20:17;;;;;;;4.90;2.90;;;;;;;6.06;77.00;97602.77;103498;1325;23994;-80
2021/12/02 03:22:44;;;;;;;3.10;2.50;;;;;;;6.08;77.00;97604.09;103877;1325;22611;-82
2021/12/02 03:25:13;;;;;;;4.00;2.60;;;;;;;6.10;76.88;97596.67;103529;1325;22771;-81
2021/12/02 03:27:41;;;;;;;4.20;3.00;;;;;;;6.09;76.71;97600.21;103156;1325;22931;-79
2021/12/02 03:30:08;;;;;;;3.60;2.60;;;;;;;6.06;76.74;97606.42;103125;1324;24070;-80
2021/12/02 03:32:37;;;;;;;3.30;2.80;;;;;;;6.02;76.89;97609.85;103596;1319;22564;-79
2021/12/02 03:35:06;;;;;;;4.60;3.50;;;;;;;6.04;76.97;97606.83;103615;1317;22556;-80
2021/12/02 03:37:33;;;;;;;3.40;2.60;;;;;;;6.06;76.77;97608.88;103307;1319;22636;-79
2021/12/02 03:40:00;;;;;;;4.80;2.40;;;;;;;6.04;76.57;97599.51;103636;1319;22566;-79
2021/12/02 03:42:29;;;;;;;8.50;3.30;;;;;;;6.04;76.82;97600.54;103679;1319;22944;-83
2021/12/02 03:44:56;;;;;;;6.80;3.90;;;;;;;6.04;76.51;97592.68;103270;1319;22571;-80
2021/12/02 03:47:23;;;;;;;6.70;4.30;;;;;;;6.06;76.40;97597.70;103387;1319;23930;-78
2021/12/02 03:49:50;;;;;;;5.40;2.90;;;;;;;6.08;76.19;97598.52;103364;1322;25374;-81
2021/12/02 03:52:17;;;;;;;3.40;3.00;;;;;;;6.06;75.97;97603.11;103357;1323;22573;-83
2021/12/02 03:54:44;;;;;;;3.00;2.20;;;;;;;6.05;75.81;97599.29;103711;1322;22637;-80
2021/12/02 03:57:11;;;;;;;6.20;2.50;;;;;;;6.03;75.77;97596.55;103703;1322;24275;-79
2021/12/02 03:59:37;;;;;;;3.70;2.30;;;;;;;6.08;75.91;97595.52;103737;1317;23904;-79
2021/12/02 04:02:06;;;;;;;3.50;2.50;;;;;;;6.10;75.73;97598.94;103668;1322;25288;-79
2021/12/02 04:04:33;;;;;;;2.40;2.10;;;;;;;6.11;75.56;97600.68;103973;1322;26754;-79
2021/12/02 04:07:00;;;;;;;3.30;2.00;;;;;;;6.10;75.38;97603.32;104405;1323;25583;-78
2021/12/02 04:09:34;;;;;;;2.40;2.00;;;;;;;6.08;75.10;97602.70;104538;1319;25255;-78
2021/12/02 04:12:07;;;;;;;2.50;1.80;;;;;;;6.09;75.20;97612.64;105400;1317;22676;-79
2021/12/02 04:14:39;;;;;;;2.80;1.90;;;;;;;6.13;74.94;97613.70;105819;1319;22615;-78
2021/12/02 04:17:07;;;;;;;1.80;1.70;;;;;;;6.14;74.89;97606.67;106279;1319;22617;-78
2021/12/02 04:19:37;;;;;;;2.20;1.80;;;;;;;6.16;74.28;97613.58;105042;1317;24239;-79
2021/12/02 04:22:05;;;;;;;2.70;1.90;;;;;;;6.18;74.20;97623.11;104550;1317;23645;-78
2021/12/02 04:24:34;;;;;;;4.20;2.10;;;;;;;6.21;73.87;97615.51;103907;1313;205062;-78
2021/12/02 04:27:01;;;;;;;4.00;2.10;;;;;;;6.23;73.05;97611.95;103533;1319;24209;-77
2021/12/02 04:29:29;;;;;;;5.40;1.80;;;;;;;6.23;73.05;97605.83;104884;1319;22858;-85
2021/12/02 04:31:57;;;;;;;3.60;1.60;;;;;;;6.22;72.36;97611.82;104160;1319;22779;-77
2021/12/02 04:34:24;;;;;;;1.70;1.30;;;;;;;6.24;72.68;97617.86;104585;1318;25576;-78
2021/12/02 04:36:51;;;;;;;2.00;1.50;;;;;;;6.27;71.77;97625.79;104171;1317;24291;-79
2021/12/02 04:39:18;;;;;;;1.70;1.50;;;;;;;6.29;71.16;97634.63;104146;1319;22640;-79
2021/12/02 04:41:45;;;;;;;2.20;1.50;;;;;;;6.32;70.35;97631.19;104034;1319;22580;-81
2021/12/02 04:44:14;;;;;;;2.70;1.40;;;;;;;6.27;70.59;97631.90;103735;1318;24199;-78
2021/12/02 04:46:41;;;;;;;1.60;1.50;;;;;;;6.29;70.33;97642.66;103043;1323;25255;-79
2021/12/02 04:49:08;;;;;;;1.40;1.20;;;;;;;6.27;70.24;97639.40;103032;1323;23953;-77
2021/12/02 04:51:36;;;;;;;2.20;1.60;;;;;;;6.28;70.19;97644.10;102844;1323;24787;-79
2021/12/02 04:54:03;;;;;;;2.00;1.50;;;;;;;6.28;70.09;97649.17;103088;1323;25543;-80
2021/12/02 04:56:29;;;;;;;1.70;1.40;;;;;;;6.28;70.59;97652.67;103333;1323;22584;-81
2021/12/02 04:58:56;;;;;;;1.70;1.60;;;;;;;6.29;70.30;97654.73;103030;1323;25520;-80
2021/12/02 05:01:23;;;;;;;2.10;1.40;;;;;;;6.26;70.21;97660.27;103157;1323;22599;-78
2021/12/02 05:03:51;;;;;;;2.20;1.40;;;;;;;6.24;70.16;97654.42;103034;1323;23981;-78
2021/12/02 05:06:18;;;;;;;3.10;1.70;;;;;;;6.21;70.51;97654.83;103506;1319;22653;-78
2021/12/02 05:08:45;;;;;;;1.90;1.50;;;;;;;6.23;70.37;97658.80;103417;1319;24329;-79
2021/12/02 05:11:12;;;;;;;2.60;1.60;;;;;;;6.23;70.37;97658.29;103346;1316;22587;-81
2021/12/02 05:13:39;;;;;;;3.10;1.60;;;;;;;6.20;70.28;97664.31;103502;1319;23266;-81
2021/12/02 05:16:08;;;;;;;3.10;1.40;;;;;;;6.17;69.84;97672.95;103422;1316;24250;-81
2021/12/02 05:18:35;;;;;;;2.60;1.90;;;;;;;6.14;69.68;97670.08;103456;1319;22562;-84
2021/12/02 05:21:02;;;;;;;2.50;1.60;;;;;;;6.15;69.56;97684.56;103294;1319;26543;-79
2021/12/02 05:23:29;;;;;;;2.00;1.60;;;;;;;6.16;69.41;97681.04;103628;1317;26588;-80
2021/12/02 05:25:56;;;;;;;1.60;1.40;;;;;;;6.15;69.23;97684.75;103037;1322;24105;-79
2021/12/02 05:28:23;;;;;;;2.30;1.30;;;;;;;6.14;69.36;97694.74;102913;1322;24332;-79
2021/12/02 05:30:50;;;;;;;3.10;1.40;;;;;;;6.16;69.56;97696.41;102865;1322;24241;-79
2021/12/02 05:33:17;;;;;;;1.70;1.20;;;;;;;6.17;69.52;97715.26;102811;1322;23581;-79
2021/12/02 05:35:45;;;;;;;2.60;1.40;;;;;;;6.16;69.16;97713.02;102872;1321;23189;-79
2021/12/02 05:38:12;;;;;;;1.30;1.20;;;;;;;6.17;69.50;97724.52;102955;1322;25380;-79
2021/12/02 05:40:39;;;;;;;1.50;1.10;;;;;;;6.17;68.99;97725.73;102944;1322;22648;-77
2021/12/02 05:43:06;;;;;;;2.20;1.30;;;;;;;6.15;68.78;97736.83;103058;1322;23975;-80
2021/12/02 05:45:34;;;;;;;2.20;1.50;;;;;;;6.10;67.52;97737.52;103303;1319;22629;-79
2021/12/02 05:48:01;;;;;;;2.70;1.10;;;;;;;6.05;66.70;97749.20;103298;1319;23471;-82
2021/12/02 05:50:28;;;;;;;0.70;0.60;;;;;;;5.99;65.61;97750.26;103393;1316;25427;-82
2021/12/02 05:52:54;;;;;;;2.40;0.90;;;;;;;5.92;64.92;97762.15;103569;1319;24237;-83
2021/12/02 05:55:22;;;;;;;1.90;0.80;;;;;;;5.86;63.39;97754.16;103626;1318;22582;-78
2021/12/02 05:57:49;;;;;;;2.10;1.00;;;;;;;5.79;62.83;97764.88;104095;1310;22570;-79
2021/12/02 06:00:17;;;;;;;2.10;0.70;;;;;;;5.76;63.32;97770.21;103465;1319;22599;-84
2021/12/02 06:02:44;;;;;;;3.70;1.00;;;;;;;5.73;63.73;97777.81;104163;1317;23131;-76
2021/12/02 06:05:17;;;;;;;2.70;0.90;;;;;;;5.70;63.27;97780.17;103569;1319;24417;-78
2021/12/02 06:07:44;;;;;;;1.50;0.90;;;;;;;5.65;62.81;97778.05;103519;1317;24250;-76
2021/12/02 06:10:11;;;;;;;2.30;0.90;;;;;;;5.61;63.17;97779.23;103484;1318;24243;-77
2021/12/02 06:12:38;;;;;;;2.00;0.90;;;;;;;5.56;62.98;97776.39;103216;1319;22570;-76
2021/12/02 06:15:06;;;;;;;0.60;0.60;;;;;;;5.53;62.87;97787.64;103388;1319;24369;-76
2021/12/02 06:17:35;;;;;;;1.50;0.90;;;;;;;5.48;62.19;97777.49;103762;1318;24351;-77
2021/12/02 06:20:07;;;;;;;0.90;0.50;;;;;;;5.43;62.14;97794.06;103815;1320;25416;-74
2021/12/02 06:22:34;;;;;;;1.40;0.80;;;;;;;5.41;61.99;97788.54;104104;1320;22652;-75
2021/12/02 06:27:44;;;;;;;3.40;0.90;;;;;;;5.36;61.52;97793.06;103447;1319;22604;-79
2021/12/02 06:30:12;;;;;;;0.60;0.60;;;;;;;5.35;61.43;97805.84;103356;1318;22590;-78
2021/12/02 06:32:40;;;;;;;2.70;0.80;;;;;;;5.31;61.20;97794.42;103496;1317;22578;-81
2021/12/02 06:35:08;;;;;;;4.20;1.00;;;;;;;5.31;61.72;97801.04;103310;1320;22641;-78
2021/12/02 06:37:36;;;;;;;2.50;0.90;;;;;;;5.32;61.48;97795.08;103720;1319;25330;-79
2021/12/02 06:40:04;;;;;;;2.30;0.70;;;;;;;5.35;62.13;97807.91;103608;1318;22571;-80
2021/12/02 06:42:32;;;;;;;2.50;1.10;;;;;;;5.36;61.94;97803.52;103575;1318;24270;-80
2021/12/02 06:44:59;;;;;;;1.70;0.70;;;;;;;5.36;61.81;97814.02;103579;1318;22804;-79
2021/12/02 06:47:39;;;;;;;2.40;1.00;;;;;;;5.31;61.43;97809.24;103484;1318;25448;-79
2021/12/02 06:50:09;;;;;;;1.00;0.70;;;;;;;5.29;62.01;97814.89;103535;1318;22737;-79
2021/12/02 06:52:37;;;;;;;3.10;1.10;;;;;;;5.26;61.77;97820.92;103428;1317;22766;-80
2021/12/02 06:55:04;;;;;;;1.60;0.90;;;;;;;5.22;62.11;97820.15;103494;1318;23436;-79
2021/12/02 06:57:31;;;;;;;1.20;0.70;;;;;;;5.20;62.54;97819.70;103364;1318;24244;-80
2021/12/02 07:00:04;;;;;;;2.50;1.30;;;;;;;5.17;62.62;97826.57;103775;1318;22641;-78
2021/12/02 07:02:32;;;;;;;1.20;0.90;;;;;;;5.11;62.88;97828.13;103641;1318;24237;-79
2021/12/02 07:04:59;;;;;;;2.40;1.30;;;;;;;5.10;63.34;97826.97;103586;1319;23158;-80
2021/12/02 07:07:30;;;;;;;2.00;1.00;;;;;;;5.13;63.64;97821.64;103549;1318;22564;-81
2021/12/02 07:09:59;;;;;;;2.00;1.20;;;;;;;5.14;63.68;97828.58;103754;1318;25232;-80
2021/12/02 07:12:33;;;;;;;2.30;1.20;;;;;;;5.14;63.89;97837.30;103892;1317;23931;-80
2021/12/02 07:15:16;;;;;;;1.60;1.10;;;;;;;5.17;64.06;97834.08;104001;1312;22600;-83
2021/12/02 07:17:46;;;;;;;3.00;1.40;;;;;;;5.23;64.47;97841.42;104846;1321;22586;-78
2021/12/02 07:20:13;;;;;;;1.80;1.20;;;;;;;5.27;64.76;97840.43;105895;1322;23411;-80
2021/12/02 07:22:41;;;;;;;1.70;1.00;;;;;;;5.32;64.75;97845.01;104112;1322;22614;-79
2021/12/02 07:25:09;;;;;;;3.00;1.30;;;;;;;5.38;64.90;97840.11;105372;1324;22547;-80
2021/12/02 07:27:36;;;;;;;1.70;1.10;;;;;;;5.43;64.99;97842.94;105482;1320;22641;-78
2021/12/02 07:30:06;;;;;;;2.30;1.10;;;;;;;5.45;64.65;97848.28;105298;1321;22679;-78
2021/12/02 07:32:39;;;;;;;3.40;1.60;;;;;;;5.49;63.66;97847.33;103854;1320;22562;-79
2021/12/02 07:35:10;;;;;;;1.90;1.10;;;;;;;5.50;63.61;97849.89;103807;1319;23134;-79
2021/12/02 07:37:42;;;;;;;1.60;1.10;;;;;;;5.51;63.54;97856.69;103618;1318;24804;-83
2021/12/02 07:40:10;;;;;;;1.20;1.00;;;;;;;5.50;62.84;97852.68;103692;1319;22687;-80
2021/12/02 07:42:37;;;;;;;2.50;1.20;;;;;;;5.48;62.52;97847.17;103460;1317;22547;-82
2021/12/02 07:45:07;;;;;;;3.00;1.00;;;;;;;5.46;62.17;97849.31;103279;1319;22570;-78
2021/12/02 07:47:34;;;;;;;2.10;1.20;;;;;;;5.42;61.83;97846.45;103170;1318;23899;-76
2021/12/02 07:50:01;;;;;;;1.80;1.00;;;;;;;5.44;62.12;97860.38;103369;1317;25279;-79
2021/12/02 07:52:35;;;;;;;1.50;1.00;;;;;;;5.45;62.03;97859.82;103474;1319;25560;-82
2021/12/02 07:55:08;;;;;;;2.20;0.90;;;;;;;5.46;61.62;97866.23;103454;1319;26645;-81
2021/12/02 07:57:45;;;;;;;2.10;1.00;;;;;;;5.46;61.02;97868.16;103419;1319;22588;-79
2021/12/02 08:00:27;;;;;;;2.10;1.00;;;;;;;5.42;61.02;97870.01;103241;1320;24781;-80
2021/12/02 08:02:56;;;;;;;2.50;0.90;;;;;;;5.45;60.52;97877.98;103722;1319;22719;-80
2021/12/02 08:05:26;;;;;;;1.40;1.00;;;;;;;5.44;60.19;97872.77;103470;1319;24238;-79
2021/12/02 08:07:55;;;;;;;6.10;1.00;;;;;;;5.44;60.69;97878.52;103122;1323;25888;-80
2021/12/02 08:10:22;;;;;;;3.40;1.10;;;;;;;5.49;60.27;97888.14;102871;1323;25378;-79
2021/12/02 08:12:51;;;;;;;3.10;1.20;;;;;;;5.52;60.66;97880.74;102974;1323;23332;-79
2021/12/02 08:15:24;;;;;;;2.10;1.10;;;;;;;5.53;60.18;97888.90;102921;1323;25510;-79
2021/12/02 08:17:53;;;;;;;3.00;1.00;;;;;;;5.53;59.84;97886.64;103105;1323;25452;-79
2021/12/02 08:20:22;;;;;;;2.90;1.30;;;;;;;5.52;59.76;97888.94;102867;1323;25472;-81
2021/12/02 08:22:50;;;;;;;2.20;1.20;;;;;;;5.53;59.67;97892.06;103015;1324;22807;-84
2021/12/02 08:25:20;;;;;;;1.00;0.90;;;;;;;5.54;59.29;97888.70;102948;1320;25391;-80
2021/12/02 08:27:49;;;;;;;1.50;1.10;;;;;;;5.56;59.56;97900.01;103230;1320;22573;-80
2021/12/02 08:30:18;;;;;;;4.00;1.30;;;;;;;5.63;59.60;97908.19;103552;1319;25480;-81
2021/12/02 08:32:45;;;;;;;2.10;0.90;;;;;;;5.65;59.16;97913.00;103535;1319;25042;-80
2021/12/02 08:35:14;;;;;;;2.50;1.30;;;;;;;5.69;59.28;97915.15;103204;1317;24305;-79
2021/12/02 08:37:45;;;;;;;2.20;1.40;;;;;;;5.70;58.96;97902.05;103423;1319;24224;-85
2021/12/02 08:40:17;;;;;;;2.10;1.00;;;;;;;5.68;59.20;97920.77;103356;1319;22583;-80
2021/12/02 08:42:45;;;;;;;1.40;0.90;;;;;;;5.70;59.27;97909.39;103605;1318;24244;-81
2021/12/02 08:45:15;;;;;;;2.10;1.10;;;;;;;5.75;59.20;97926.88;103497;1319;24257;-81
2021/12/02 08:47:45;;;;;;;3.70;1.30;;;;;;;5.79;59.29;97930.62;103440;1319;23943;-82
2021/12/02 08:50:17;;;;;;;2.00;1.20;;;;;;;5.91;59.33;97940.39;103453;1317;22681;-81
2021/12/02 08:52:46;;;;;;;2.30;1.30;;;;;;;6.00;58.54;97931.77;103079;1320;25443;-80
2021/12/02 08:55:15;;;;;;;2.80;1.10;;;;;;;6.05;57.85;97937.90;103250;1319;25344;-79
2021/12/02 08:57:46;;;;;;;2.10;1.10;;;;;;;6.11;57.94;97931.77;103274;1318;22618;-78
2021/12/02 09:00:17;;;;;;;3.20;1.20;;;;;;;6.18;57.03;97935.23;103484;1319;25560;-82
2021/12/02 09:02:48;;;;;;;2.30;2.10;;;;;;;6.17;56.62;97930.89;103328;1319;22773;-81
2021/12/02 09:05:17;;;;;;;1.30;0.90;;;;;;;6.22;56.40;97943.16;103474;1317;22544;-78
2021/12/02 09:07:44;;;;;;;3.80;1.10;;;;;;;6.29;55.99;97934.92;103364;1319;25356;-78
2021/12/02 09:10:31;;;;;;;4.80;1.30;;;;;;;6.38;55.96;97932.17;103441;1318;22748;-80
2021/12/02 09:12:59;;;;;;;3.50;1.20;;;;;;;6.42;55.32;97948.15;103601;1317;23065;-79
2021/12/02 09:15:39;;;;;;;1.90;0.90;;;;;;;6.42;55.05;97947.45;103468;1319;22801;-80
2021/12/02 09:18:08;;;;;;;1.20;0.90;;;;;;;6.50;54.86;97951.56;103089;1321;25277;-80
2021/12/02 09:20:36;;;;;;;1.50;1.30;;;;;;;6.55;54.15;97949.14;103052;1322;22593;-79
2021/12/02 09:23:04;;;;;;;3.50;0.90;;;;;;;6.61;53.52;97950.01;102613;1328;24286;-80
2021/12/02 09:25:31;;;;;;;4.30;1.10;;;;;;;6.65;52.68;97948.14;102607;1328;22726;-79
2021/12/02 09:27:58;;;;;;;4.80;1.10;;;;;;;6.68;53.18;97951.71;102545;1325;22711;-76
2021/12/02 09:30:25;;;;;;;2.80;0.90;;;;;;;6.79;52.84;97958.16;102628;1328;24015;-81
2021/12/02 09:32:55;;;;;;;2.20;1.00;;;;;;;6.82;51.82;97959.83;102641;1328;25381;-83
2021/12/02 09:35:23;;;;;;;2.10;1.00;;;;;;;6.85;52.15;97952.57;102792;1328;22829;-78
2021/12/02 09:37:51;;;;;;;2.90;1.10;;;;;;;6.86;51.49;97947.98;103486;1322;24407;-79
2021/12/02 09:40:18;;;;;;;2.40;1.00;;;;;;;6.88;51.23;97937.58;103645;1322;22590;-79
2021/12/02 09:42:47;;;;;;;1.70;1.10;;;;;;;6.83;51.17;97946.14;103311;1322;23987;-79
2021/12/02 09:45:17;;;;;;;1.00;0.70;;;;;;;6.81;51.68;97958.63;103048;1322;24419;-79
2021/12/02 09:47:47;;;;;;;1.90;1.20;;;;;;;6.68;51.05;97944.55;103044;1322;22581;-81
2021/12/02 09:50:21;;;;;;;2.10;1.00;;;;;;;6.74;51.05;97959.21;102982;1322;22985;-80
2021/12/02 09:52:48;;;;;;;1.60;0.90;;;;;;;6.72;49.95;97949.48;102997;1320;22580;-79
2021/12/02 09:55:25;;;;;;;1.40;0.90;;;;;;;6.69;50.14;97959.19;103091;1322;22603;-79
2021/12/02 09:57:58;;;;;;;3.00;1.00;;;;;;;6.68;49.52;97955.71;103007;1323;26564;-81
2021/12/02 10:03:20;;;;;;;1.60;0.90;;;;;;;6.85;50.28;97955.70;103414;1318;22590;-82
2021/12/02 10:05:59;;;;;;;3.40;1.10;;;;;;;6.86;50.87;97961.28;103424;1318;26723;-79
2021/12/02 10:08:32;;;;;;;2.80;1.10;;;;;;;6.98;51.20;97953.02;103542;1317;22577;-79
2021/12/02 10:11:02;;;;;;;3.20;1.10;;;;;;;6.93;50.69;97976.42;103542;1319;23908;-80
2021/12/02 10:13:50;;;;;;;0.90;0.90;;;;;;;6.86;50.92;97960.05;103426;1318;23750;-79
2021/12/02 10:19:17;;;;;;;2.40;1.20;;;;;;;6.76;51.59;97961.42;105055;1317;25352;-79
2021/12/02 10:24:17;;;;;;;2.60;1.30;;;;;;;6.74;51.92;97972.69;104643;1317;22565;-78
2021/12/02 10:26:52;;;;;;;2.20;1.00;;;;;;;6.67;52.30;97959.25;104865;1318;24577;-78
2021/12/02 10:29:40;;;;;;;2.60;1.20;;;;;;;6.88;52.53;97965.56;105384;1319;22921;-81
2021/12/02 10:32:16;;;;;;;2.80;1.10;;;;;;;7.08;52.51;97976.13;105796;1317;22746;-79
2021/12/02 10:35:10;;;;;;;5.00;1.10;;;;;;;7.21;52.31;97984.10;105727;1319;22794;-81
2021/12/02 10:37:40;;;;;;;2.40;1.40;;;;;;;7.29;52.13;97969.46;105579;1319;22543;-82
2021/12/02 10:40:13;;;;;;;1.70;1.30;;;;;;;7.17;52.57;97972.14;104674;1314;22657;-82
2021/12/02 10:42:48;;;;;;;4.30;1.30;;;;;;;7.00;52.76;97977.42;104099;1325;22729;-81
2021/12/02 10:45:23;;;;;;;4.50;1.10;;;;;;;6.98;52.79;97962.27;105099;1325;23935;-80
2021/12/02 10:47:54;;;;;;;2.10;1.00;;;;;;;6.83;51.50;97988.30;103256;1325;22580;-82
2021/12/02 10:50:26;;;;;;;1.60;1.00;;;;;;;6.69;51.50;97978.94;103510;1324;23981;-80
2021/12/02 10:53:03;;;;;;;2.90;1.10;;;;;;;6.54;51.44;97964.03;103334;1325;22842;-84
2021/12/02 10:55:31;;;;;;;3.20;1.40;;;;;;;6.35;51.92;97976.50;103204;1325;22886;-80
2021/12/02 10:58:03;;;;;;;2.20;1.40;;;;;;;6.35;52.35;97971.79;103028;1324;24017;-82
2021/12/02 11:00:42;;;;;;;3.30;1.30;;;;;;;6.24;52.64;97981.73;102890;1326;24570;-81
2021/12/02 11:03:14;;;;;;;3.20;1.20;;;;;;;6.23;52.95;97975.64;102994;1326;22567;-83
2021/12/02 11:05:47;;;;;;;3.00;1.20;;;;;;;6.18;52.83;97988.20;102867;1325;22978;-80
2021/12/02 11:08:16;;;;;;;4.60;1.20;;;;;;;6.12;53.16;97983.48;103302;1319;24283;-81
2021/12/02 11:10:46;;;;;;;3.30;1.00;;;;;;;6.14;53.79;97970.14;103420;1320;22608;-84
2021/12/02 11:13:20;;;;;;;2.70;1.20;;;;;;;6.27;53.73;97984.27;103477;1318;24257;-78
2021/12/02 11:15:47;;;;;;;4.60;1.80;;;;;;;6.32;53.95;97987.63;103241;1320;22611;-79
2021/12/02 11:18:17;;;;;;;2.10;1.40;;;;;;;6.47;53.82;97999.23;103265;1320;23224;-80
2021/12/02 11:20:47;;;;;;;1.30;0.90;;;;;;;6.64;51.85;97987.34;103308;1320;25585;-80
2021/12/02 11:23:17;;;;;;;2.00;0.90;;;;;;;6.77;50.78;97977.14;103327;1319;25033;-81
2021/12/02 11:26:08;;;;;;;6.10;1.40;;;;;;;6.83;50.45;97989.00;103109;1320;25391;-79
2021/12/02 11:28:38;;;;;;;2.50;1.20;;;;;;;6.78;49.87;97994.06;103269;1317;25632;-79
2021/12/02 11:31:15;;;;;;;2.40;1.00;;;;;;;6.58;50.01;97982.63;103263;1320;22734;-79
2021/12/02 11:33:44;;;;;;;1.80;0.80;;;;;;;6.53;50.24;97978.60;103217;1320;24285;-83
2021/12/02 11:36:22;;;;;;;4.30;1.60;;;;;;;6.40;50.92;97992.80;103413;1320;23254;-77
2021/12/02 11:38:57;;;;;;;1.40;0.70;;;;;;;6.26;50.85;98000.39;103283;1320;22582;-78
2021/12/02 11:41:26;;;;;;;2.00;1.10;;;;;;;6.02;51.46;97986.39;103423;1320;22580;-78
2021/12/02 11:43:55;;;;;;;3.30;1.30;;;;;;;5.89;52.09;97987.63;103193;1320;26552;-81
2021/12/02 11:46:22;;;;;;;3.00;1.30;;;;;;;5.83;52.30;98005.95;103243;1320;24242;-80
2021/12/02 11:48:50;;;;;;;4.30;1.50;;;;;;;5.77;52.12;97998.95;103291;1320;25471;-81
2021/12/02 11:51:21;;;;;;;1.80;1.40;;;;;;;5.71;52.50;98010.99;103297;1318;22616;-79
2021/12/02 11:53:50;;;;;;;1.80;1.10;;;;;;;5.60;52.50;98018.79;103108;1320;24315;-80
2021/12/02 11:56:21;;;;;;;5.80;1.40;;;;;;;5.50;52.28;98032.13;103160;1320;25580;-80
2021/12/02 11:58:50;;;;;;;2.20;1.20;;;;;;;5.49;51.94;98039.17;103252;1320;24344;-78
2021/12/02 12:01:24;;;;;;;1.90;0.80;;;;;;;5.45;52.16;98037.52;103176;1320;23778;-80
2021/12/02 12:04:07;;;;;;;2.00;1.20;;;;;;;5.40;52.42;98026.31;103241;1320;25313;-80
2021/12/02 12:06:36;;;;;;;2.20;1.20;;;;;;;5.36;52.33;98018.91;103145;1320;25630;-78
2021/12/02 12:09:16;;;;;;;2.60;1.30;;;;;;;5.33;52.52;98022.98;103226;1321;24338;-80
2021/12/02 12:11:47;;;;;;;3.20;1.10;;;;;;;5.32;52.50;98028.23;103445;1319;22583;-78
2021/12/02 12:14:19;;;;;;;5.00;1.30;;;;;;;5.33;52.57;98034.33;103311;1320;22608;-79
2021/12/02 12:16:51;;;;;;;2.00;0.90;;;;;;;5.38;52.70;98030.91;103470;1319;22593;-80